Time;durP1;ratioP1;P1;durP2;ratioP2;P2;SDS_P1;SDS_P2;PMS_P1;PMS_P2;Temp;Humidity;BMP_temperature;BMP_pressure;BME280_temperature;BME280_humidity;BME280_pressure;Samples;Min_cycle;Max_cycle;Signal;HPM_P1;HPM_P2
2023/07/01 04:55:10;;;;;;;10.95;4.90;;;;;;;12.94;100.00;87553.16;5086738;28;20406;-72
2023/07/01 04:57:35;;;;;;;5.00;4.63;;;;;;;12.92;100.00;88167.97;5074288;28;20036;-71
2023/07/01 05:00:02;;;;;;;4.43;4.03;;;;;;;12.95;100.00;88419.75;5069541;28;20436;-72
2023/07/01 05:02:28;;;;;;;5.28;4.30;;;;;;;12.90;100.00;88576.34;5068682;28;20038;-73
2023/07/01 05:04:53;;;;;;;4.22;3.95;;;;;;;12.94;100.00;88677.44;5068369;28;20044;-72
2023/07/01 05:07:19;;;;;;;4.40;4.10;;;;;;;13.02;100.00;88728.56;5069144;28;20055;-72
2023/07/01 05:09:44;;;;;;;4.25;3.85;;;;;;;13.10;100.00;88756.72;5063303;28;20048;-72
2023/07/01 05:12:09;;;;;;;3.67;3.38;;;;;;;13.16;100.00;88795.00;5062884;28;20029;-72
2023/07/01 05:14:35;;;;;;;4.57;4.18;;;;;;;13.21;100.00;88819.66;5069457;28;20015;-72
2023/07/01 05:17:00;;;;;;;6.72;3.80;;;;;;;13.25;100.00;88845.03;5069204;28;20573;-72
2023/07/01 05:19:25;;;;;;;4.40;4.00;;;;;;;13.28;100.00;88857.63;5061357;28;20032;-72
2023/07/01 05:21:53;;;;;;;3.80;3.45;;;;;;;13.36;100.00;88860.47;5063723;28;20105;-72
2023/07/01 05:24:18;;;;;;;3.70;3.40;;;;;;;13.43;100.00;88876.56;5063888;28;20036;-72
2023/07/01 05:26:48;;;;;;;4.25;3.80;;;;;;;13.52;100.00;88884.41;5069659;28;20016;-72
2023/07/01 05:29:14;;;;;;;7.95;3.88;;;;;;;13.55;100.00;88894.31;5061515;28;20039;-72
2023/07/01 05:31:40;;;;;;;4.03;3.63;;;;;;;13.61;100.00;88908.88;5060377;28;20029;-72
2023/07/01 05:34:05;;;;;;;8.18;3.15;;;;;;;13.69;100.00;88921.22;5056130;28;20021;-72
2023/07/01 05:36:31;;;;;;;3.80;3.15;;;;;;;13.78;100.00;88938.81;5058435;28;20048;-72
2023/07/01 05:38:57;;;;;;;5.03;3.30;;;;;;;13.84;100.00;88950.75;5064888;28;20033;-72
2023/07/01 05:41:22;;;;;;;3.60;3.30;;;;;;;13.88;100.00;88975.41;5068703;28;20417;-72
2023/07/01 05:43:47;;;;;;;4.15;3.38;;;;;;;13.92;100.00;89002.72;5068597;28;20017;-72
2023/07/01 05:46:13;;;;;;;3.53;3.10;;;;;;;13.98;100.00;89022.53;5069410;28;20381;-72
2023/07/01 05:48:38;;;;;;;3.35;3.05;;;;;;;13.97;100.00;89071.19;5057735;28;20358;-72
2023/07/01 05:51:04;;;;;;;3.33;3.10;;;;;;;14.02;100.00;89092.13;5067300;28;20448;-72
2023/07/01 05:53:29;;;;;;;6.70;3.00;;;;;;;14.09;100.00;89127.84;5068567;28;20052;-72
2023/07/01 05:55:54;;;;;;;3.10;2.90;;;;;;;14.15;100.00;89160.91;5074966;28;20121;-72
2023/07/01 05:58:20;;;;;;;2.78;2.58;;;;;;;14.19;100.00;89198.81;5069939;28;20024;-72
2023/07/01 06:00:45;;;;;;;5.30;3.30;;;;;;;14.23;100.00;89239.34;5066761;28;20028;-72
2023/07/01 06:03:12;;;;;;;3.40;3.10;;;;;;;14.31;100.00;89272.91;5068733;28;20016;-72
2023/07/01 06:05:37;;;;;;;3.20;3.00;;;;;;;14.43;100.00;89303.94;5056550;28;20025;-72
2023/07/01 06:08:02;;;;;;;3.20;3.00;;;;;;;14.56;100.00;89341.81;5059632;28;20031;-72
2023/07/01 06:10:28;;;;;;;4.07;2.88;;;;;;;14.66;100.00;89406.00;5061568;28;20021;-72
2023/07/01 06:12:53;;;;;;;2.97;2.80;;;;;;;14.73;100.00;89488.31;5055673;28;20017;-72
2023/07/01 06:15:19;;;;;;;5.15;3.20;;;;;;;14.76;100.00;89596.16;5055086;28;20032;-72
2023/07/01 06:17:44;;;;;;;2.60;2.47;;;;;;;14.82;100.00;89668.97;5054967;28;20017;-72
2023/07/01 06:20:10;;;;;;;4.20;2.78;;;;;;;15.00;100.00;89719.22;5055332;28;20021;-72
2023/07/01 06:22:35;;;;;;;2.97;2.53;;;;;;;15.14;100.00;89764.03;5055191;28;20024;-72
2023/07/01 06:25:00;;;;;;;3.83;2.70;;;;;;;15.32;100.00;89812.44;5055456;28;20052;-72
2023/07/01 06:27:26;;;;;;;3.00;2.80;;;;;;;15.42;100.00;89880.19;5061639;28;20047;-71
2023/07/01 06:29:51;;;;;;;7.32;2.70;;;;;;;15.47;100.00;89960.28;5051669;28;20064;-71
2023/07/01 06:32:17;;;;;;;3.90;2.58;;;;;;;15.55;100.00;90056.78;5055590;28;20452;-72
2023/07/01 06:34:42;;;;;;;3.53;2.47;;;;;;;15.59;100.00;90152.31;5054521;28;20025;-72
2023/07/01 06:37:08;;;;;;;3.05;2.72;;;;;;;15.75;100.00;90248.84;5043264;28;20025;-72
2023/07/01 06:39:33;;;;;;;3.10;2.80;;;;;;;16.00;100.00;90294.34;5040964;28;20082;-73
2023/07/01 06:41:58;;;;;;;2.30;2.20;;;;;;;16.24;100.00;90345.44;5055229;28;20574;-72
2023/07/01 06:44:24;;;;;;;2.90;2.67;;;;;;;16.33;100.00;90442.53;5050729;28;20144;-73
2023/07/01 06:46:49;;;;;;;3.13;2.60;;;;;;;16.62;100.00;90485.56;5047434;28;20035;-72
2023/07/01 06:49:15;;;;;;;2.70;2.50;;;;;;;16.89;100.00;90566.88;5054519;28;20023;-72
2023/07/01 06:51:41;;;;;;;3.88;2.28;;;;;;;17.01;100.00;90674.44;5061644;28;20028;-72
2023/07/01 06:54:07;;;;;;;2.33;2.22;;;;;;;17.25;100.00;90817.59;5054271;28;20131;-72
2023/07/01 06:56:33;;;;;;;3.75;2.38;;;;;;;17.67;100.00;90966.25;5064035;28;20028;-72
2023/07/01 06:58:58;;;;;;;2.40;2.20;;;;;;;18.09;100.00;91124.94;5054749;28;20053;-73
2023/07/01 07:01:23;;;;;;;5.25;2.45;;;;;;;18.21;100.00;91358.63;5049315;28;20039;-73
2023/07/01 07:03:49;;;;;;;3.45;2.17;;;;;;;18.55;100.00;91462.06;5068851;28;20068;-73
2023/07/01 07:06:14;;;;;;;2.83;2.53;;;;;;;18.46;100.00;91674.19;5058568;28;20586;-73
2023/07/01 07:08:39;;;;;;;3.17;2.33;;;;;;;18.73;100.00;91766.72;5048686;28;20088;-74
2023/07/01 07:11:05;;;;;;;2.35;2.17;;;;;;;19.14;100.00;91802.69;5054601;28;20047;-72
2023/07/01 07:13:30;;;;;;;2.13;1.95;;;;;;;19.51;100.00;91890.13;5055024;28;20017;-72
2023/07/01 07:15:56;;;;;;;5.63;2.05;;;;;;;19.72;100.00;92024.78;5055967;28;20560;-70
2023/07/01 07:18:21;;;;;;;3.58;2.38;;;;;;;19.91;100.00;92149.47;5053949;28;20456;-72
2023/07/01 07:20:46;;;;;;;2.22;2.03;;;;;;;20.23;100.00;92192.56;5053634;28;20031;-72
2023/07/01 07:23:12;;;;;;;3.10;2.90;;;;;;;20.39;100.00;92348.09;5052630;28;20017;-72
2023/07/01 07:25:37;;;;;;;2.00;1.90;;;;;;;20.52;100.00;92467.63;5049012;28;20025;-70
2023/07/01 07:28:03;;;;;;;2.83;2.20;;;;;;;20.63;100.00;92556.50;5049717;28;20129;-71
2023/07/01 07:30:29;;;;;;;2.78;2.40;;;;;;;20.73;100.00;92599.16;5052394;28;20124;-73
2023/07/01 07:32:55;;;;;;;5.32;2.50;;;;;;;20.95;100.00;92646.06;5052988;28;20553;-72
2023/07/01 07:35:21;;;;;;;2.80;2.15;;;;;;;20.87;100.00;92719.66;5055061;28;20046;-74
2023/07/01 07:37:47;;;;;;;3.25;2.35;;;;;;;21.35;100.00;92739.59;5058565;28;20031;-72
2023/07/01 07:40:12;;;;;;;3.08;2.00;;;;;;;21.31;100.00;92893.72;5054555;28;20405;-72
2023/07/01 07:42:38;;;;;;;4.07;2.17;;;;;;;21.36;100.00;93058.78;5054446;28;20566;-72
2023/07/01 07:45:04;;;;;;;3.22;2.20;;;;;;;21.50;100.00;93116.00;5056124;28;20043;-71
2023/07/01 07:47:29;;;;;;;2.15;1.92;;;;;;;21.14;100.00;93161.59;5053646;28;20053;-79
2023/07/01 07:49:55;;;;;;;2.17;1.98;;;;;;;21.49;100.00;93108.25;5052426;28;20046;-79
2023/07/01 07:52:20;;;;;;;1.73;1.63;;;;;;;21.74;100.00;93153.69;5053055;28;20088;-78
2023/07/01 07:54:46;;;;;;;3.55;2.08;;;;;;;21.62;100.00;93233.47;5053199;28;20422;-79
2023/07/01 07:57:13;;;;;;;4.45;2.30;;;;;;;22.09;100.00;93177.09;5053416;28;20025;-78
2023/07/01 07:59:42;;;;;;;2.00;1.80;;;;;;;22.42;100.00;93247.94;5051589;28;20119;-79
2023/07/01 08:02:08;;;;;;;2.53;1.80;;;;;;;22.51;100.00;93373.38;5052572;28;20021;-78
2023/07/01 08:04:34;;;;;;;2.20;1.98;;;;;;;22.61;100.00;93432.34;5051375;28;20036;-79
2023/07/01 08:06:59;;;;;;;4.35;1.85;;;;;;;22.92;100.00;93493.13;5051534;28;20017;-79
2023/07/01 08:09:25;;;;;;;1.95;1.85;;;;;;;22.99;100.00;93633.97;5062011;28;20111;-77
2023/07/01 08:11:51;;;;;;;4.13;2.15;;;;;;;22.63;100.00;93743.09;5052854;28;20123;-79
2023/07/01 08:14:19;;;;;;;2.22;2.05;;;;;;;22.80;100.00;93743.66;5052535;28;20032;-81
2023/07/01 08:16:45;;;;;;;3.65;2.13;;;;;;;23.12;100.00;93717.66;5052568;28;20099;-78
2023/07/01 08:19:10;;;;;;;4.28;2.05;;;;;;;23.30;100.00;93812.97;5042541;28;20114;-81
2023/07/01 08:21:37;;;;;;;2.22;1.77;;;;;;;23.22;100.00;93857.25;5052750;28;20651;-79
2023/07/01 08:24:07;;;;;;;2.67;1.90;;;;;;;23.06;100.00;93756.31;5052642;28;20171;-78
2023/07/01 08:26:32;;;;;;;1.70;1.60;;;;;;;23.34;100.00;93832.84;5048838;28;20025;-79
2023/07/01 08:28:58;;;;;;;1.90;1.80;;;;;;;23.26;100.00;93861.03;5052502;28;20029;-81
2023/07/01 08:31:23;;;;;;;1.90;1.80;;;;;;;22.98;100.00;93887.22;5053024;28;20041;-80
2023/07/01 08:33:49;;;;;;;1.90;1.80;;;;;;;23.35;100.00;93932.97;5045049;28;20607;-80
2023/07/01 08:36:14;;;;;;;2.80;1.90;;;;;;;22.23;100.00;94160.78;5049895;28;20105;-79
2023/07/01 08:38:39;;;;;;;3.83;2.17;;;;;;;21.58;100.00;94028.31;5049067;28;20669;-78
2023/07/01 08:41:09;;;;;;;2.05;1.83;;;;;;;21.06;100.00;93909.19;5052828;28;20021;-79
2023/07/01 08:43:35;;;;;;;4.65;1.90;;;;;;;21.08;100.00;93818.00;5053305;28;20017;-79
2023/07/01 08:46:04;;;;;;;3.35;2.33;;;;;;;21.12;100.00;93861.91;5052220;28;20032;-79
2023/07/01 08:48:32;;;;;;;2.13;1.92;;;;;;;21.48;100.00;93819.41;5052081;28;20049;-78
2023/07/01 08:50:58;;;;;;;3.08;2.00;;;;;;;22.52;100.00;93831.56;5052194;28;20033;-79
2023/07/01 08:53:24;;;;;;;2.13;1.95;;;;;;;23.08;100.00;93940.09;5052741;28;20056;-79
2023/07/01 08:55:52;;;;;;;1.92;1.83;;;;;;;23.46;100.00;94053.56;5057940;28;20031;-78
2023/07/01 08:58:17;;;;;;;2.03;1.83;;;;;;;23.47;100.00;94078.53;5058943;28;20021;-79
2023/07/01 09:00:43;;;;;;;1.75;1.65;;;;;;;23.56;100.00;94235.41;5052451;28;20070;-78
2023/07/01 09:03:11;;;;;;;2.63;1.90;;;;;;;23.97;100.00;94237.50;5052834;28;20055;-79
2023/07/01 09:05:37;;;;;;;2.10;2.00;;;;;;;23.35;100.00;94282.81;5053395;28;20020;-78
2023/07/01 09:08:02;;;;;;;2.50;1.80;;;;;;;22.54;100.00;94293.31;5051268;28;20017;-79
2023/07/01 09:10:28;;;;;;;2.90;2.03;;;;;;;22.08;100.00;94177.50;5060021;28;20029;-79
2023/07/01 09:12:53;;;;;;;2.70;1.85;;;;;;;22.15;100.00;94062.88;5052841;28;20103;-79
2023/07/01 09:15:19;;;;;;;1.80;1.70;;;;;;;22.52;100.00;94131.03;5052926;28;20055;-79
2023/07/01 09:17:44;;;;;;;1.92;1.75;;;;;;;22.40;100.00;94174.06;5051038;28;20048;-78
2023/07/01 09:20:11;;;;;;;1.90;1.80;;;;;;;22.51;100.00;94105.28;5053491;28;20638;-79
2023/07/01 09:22:39;;;;;;;1.98;1.70;;;;;;;22.70;100.00;94087.75;5035248;28;20465;-78
2023/07/01 09:25:05;;;;;;;3.13;2.28;;;;;;;22.75;100.00;94144.09;5052453;28;20032;-78
2023/07/01 09:27:41;;;;;;;1.85;1.75;;;;;;;22.23;100.00;94179.53;5057692;28;20017;-77
2023/07/01 09:30:27;;;;;;;2.90;2.25;;;;;;;22.06;100.00;94085.84;5047070;28;20028;-79
2023/07/01 09:33:13;;;;;;;2.00;1.90;;;;;;;21.87;100.00;94087.00;5052899;28;20021;-78
2023/07/01 09:35:43;;;;;;;2.58;1.80;;;;;;;21.59;100.00;94154.97;5052955;28;20025;-78
2023/07/01 09:38:08;;;;;;;2.10;2.00;;;;;;;21.40;100.00;94106.25;5052537;28;20017;-79
2023/07/01 09:40:34;;;;;;;2.00;1.90;;;;;;;21.13;100.00;94198.78;5054527;28;20028;-79
2023/07/01 09:43:02;;;;;;;2.53;1.83;;;;;;;20.86;100.00;94123.75;5055579;28;20036;-79
2023/07/01 09:45:27;;;;;;;2.20;2.00;;;;;;;20.53;100.00;94019.22;5056439;28;20028;-78
2023/07/01 09:47:53;;;;;;;2.13;1.95;;;;;;;20.43;100.00;94003.03;5056685;28;20055;-78
2023/07/01 09:50:28;;;;;;;3.50;1.90;;;;;;;20.69;100.00;93883.09;5056328;28;20730;-78
2023/07/01 09:52:55;;;;;;;2.42;2.10;;;;;;;20.73;100.00;93925.13;5054809;28;20490;-79
2023/07/01 09:55:21;;;;;;;3.20;2.10;;;;;;;21.06;100.00;93919.91;5056154;28;20029;-78
2023/07/01 09:57:47;;;;;;;4.82;2.28;;;;;;;21.06;100.00;93948.53;5054521;28;20017;-78
2023/07/01 10:00:15;;;;;;;2.10;2.00;;;;;;;21.01;100.00;93920.69;5055767;28;20025;-83
2023/07/01 10:02:46;;;;;;;2.22;2.13;;;;;;;21.08;100.00;93975.84;5044478;28;20074;-79
2023/07/01 10:05:12;;;;;;;3.08;2.50;;;;;;;21.09;100.00;94095.16;5054225;28;20028;-78
2023/07/01 10:07:41;;;;;;;5.05;2.28;;;;;;;20.93;100.00;94054.81;5056239;28;20045;-78
2023/07/01 10:10:16;;;;;;;2.30;2.17;;;;;;;20.88;100.00;93982.56;5060439;28;20021;-78
2023/07/01 10:12:43;;;;;;;2.50;2.30;;;;;;;21.00;100.00;93931.63;5054038;28;20017;-78
2023/07/01 10:15:11;;;;;;;2.30;2.10;;;;;;;21.24;100.00;93883.97;5055366;28;20013;-77
2023/07/01 10:17:45;;;;;;;2.40;2.20;;;;;;;21.35;100.00;94002.66;5055547;28;20032;-78
2023/07/01 10:20:30;;;;;;;7.00;2.40;;;;;;;21.31;100.00;94108.56;5055505;28;20614;-77
2023/07/01 10:22:57;;;;;;;3.65;2.58;;;;;;;21.10;100.00;94076.19;5049186;28;20058;-77
2023/07/01 10:25:34;;;;;;;3.17;2.53;;;;;;;21.01;100.00;94025.00;5055335;28;20033;-77
2023/07/01 10:28:00;;;;;;;3.90;2.53;;;;;;;20.83;100.00;94009.25;5056578;28;20028;-77
2023/07/01 10:30:26;;;;;;;2.50;2.40;;;;;;;21.02;100.00;94023.13;5051303;28;20028;-77
2023/07/01 10:32:52;;;;;;;2.85;2.65;;;;;;;20.94;100.00;94037.72;5050968;28;20135;-77
2023/07/01 10:35:17;;;;;;;3.30;2.50;;;;;;;21.11;100.00;94067.13;5055021;28;20040;-77
2023/07/01 10:38:19;;;;;;;2.42;2.15;;;;;;;20.84;100.00;94097.22;5055333;28;20057;-77
2023/07/01 10:40:45;;;;;;;3.45;2.67;;;;;;;20.54;100.00;94118.94;5054968;28;20071;-77
2023/07/01 10:43:22;;;;;;;2.97;2.78;;;;;;;20.27;100.00;94058.09;5054775;28;20017;-77
2023/07/01 10:46:05;;;;;;;3.15;2.50;;;;;;;20.30;100.00;93934.72;5054174;28;20035;-76
2023/07/01 10:48:30;;;;;;;3.17;2.50;;;;;;;20.61;100.00;93935.94;5055545;28;20132;-76
2023/07/01 10:51:10;;;;;;;3.42;2.70;;;;;;;20.76;100.00;94004.81;5055066;28;20028;-77
2023/07/01 10:54:03;;;;;;;3.13;2.83;;;;;;;20.60;100.00;94009.16;5054361;28;20048;-76
2023/07/01 10:56:38;;;;;;;2.80;2.60;;;;;;;20.58;100.00;94024.66;5062886;28;20040;-76
2023/07/01 10:59:26;;;;;;;9.13;2.67;;;;;;;20.44;100.00;94020.69;5054497;28;20044;-76
2023/07/01 11:01:56;;;;;;;4.88;3.08;;;;;;;20.36;100.00;93954.31;5054960;28;20032;-76
2023/07/01 11:04:23;;;;;;;3.55;2.45;;;;;;;20.24;100.00;93938.38;5041533;28;20028;-76
2023/07/01 11:06:51;;;;;;;3.28;2.40;;;;;;;20.10;100.00;93928.03;5039169;28;20026;-76
2023/07/01 11:09:31;;;;;;;3.03;2.78;;;;;;;20.22;100.00;93949.28;5061299;28;20086;-76
2023/07/01 11:12:00;;;;;;;4.20;2.75;;;;;;;20.20;100.00;93897.97;5043863;28;20036;-76
2023/07/01 11:14:33;;;;;;;2.97;2.60;;;;;;;20.38;100.00;93880.03;5053369;28;20111;-77
2023/07/01 11:17:10;;;;;;;2.92;2.65;;;;;;;20.50;100.00;93896.78;5054939;28;20060;-76
2023/07/01 11:19:37;;;;;;;2.95;2.70;;;;;;;20.53;100.00;93970.28;5042688;28;20036;-75
2023/07/01 11:22:04;;;;;;;3.03;2.83;;;;;;;20.55;100.00;94035.84;5042034;28;20028;-76
2023/07/01 11:24:30;;;;;;;2.72;2.53;;;;;;;20.33;100.00;94049.94;5052877;28;20020;-75
2023/07/01 11:27:03;;;;;;;3.15;2.80;;;;;;;20.31;100.00;94035.19;5054218;28;20036;-76
2023/07/01 11:29:30;;;;;;;2.75;2.55;;;;;;;20.15;100.00;94044.84;5052019;28;20044;-76
2023/07/01 11:32:07;;;;;;;2.80;2.60;;;;;;;20.10;100.00;94021.50;5053845;28;20052;-76
2023/07/01 11:34:32;;;;;;;3.80;2.58;;;;;;;20.16;100.00;94025.06;5053935;28;20029;-76
2023/07/01 11:36:59;;;;;;;2.75;2.55;;;;;;;19.98;100.00;94029.59;5053265;28;20094;-76
2023/07/01 11:39:26;;;;;;;4.18;2.67;;;;;;;19.88;100.00;93981.34;5051730;28;20140;-76
2023/07/01 11:42:02;;;;;;;2.67;2.42;;;;;;;19.96;100.00;93948.91;5053896;28;20033;-75
2023/07/01 11:44:34;;;;;;;4.18;2.50;;;;;;;19.58;100.00;93881.81;5053445;28;20020;-77
2023/07/01 11:46:59;;;;;;;2.90;2.70;;;;;;;19.46;100.00;93715.69;5043809;28;20025;-76
2023/07/01 11:49:30;;;;;;;2.72;2.53;;;;;;;19.47;100.00;93661.25;5049785;28;20025;-77
2023/07/01 11:51:56;;;;;;;5.40;3.10;;;;;;;19.56;100.00;93533.50;5050707;28;20041;-77
2023/07/01 11:54:24;;;;;;;2.92;2.72;;;;;;;19.68;100.00;93544.06;5038134;28;20041;-76
2023/07/01 11:56:53;;;;;;;3.10;2.80;;;;;;;19.41;100.00;93639.03;5055835;28;20037;-76
2023/07/01 11:59:36;;;;;;;3.05;2.65;;;;;;;19.26;100.00;93569.47;5051684;28;20029;-76
2023/07/01 12:02:01;;;;;;;3.03;2.78;;;;;;;19.12;100.00;93457.03;5044266;28;20025;-76
2023/07/01 12:04:30;;;;;;;3.75;2.70;;;;;;;19.05;100.00;93342.56;5052673;28;20664;-77
2023/07/01 12:07:09;;;;;;;3.92;3.00;;;;;;;19.02;100.00;93361.75;5052293;28;20032;-76
2023/07/01 12:09:35;;;;;;;2.95;2.75;;;;;;;19.08;100.00;93368.72;5058577;28;20025;-76
2023/07/01 12:12:01;;;;;;;3.25;2.97;;;;;;;19.04;100.00;93396.97;5053026;28;20108;-76
2023/07/01 12:14:27;;;;;;;3.20;2.90;;;;;;;19.19;100.00;93414.97;5053113;28;20117;-77
2023/07/01 12:16:53;;;;;;;4.10;2.70;;;;;;;19.10;100.00;93459.16;5053130;28;20029;-76
2023/07/01 12:19:20;;;;;;;3.15;2.95;;;;;;;19.11;100.00;93458.09;5053173;28;20032;-76
2023/07/01 12:21:47;;;;;;;4.05;3.10;;;;;;;19.14;100.00;93468.25;5053028;28;20049;-76
2023/07/01 12:24:24;;;;;;;4.90;2.80;;;;;;;19.11;100.00;93474.09;5052976;28;20047;-76
2023/07/01 12:26:52;;;;;;;3.47;2.97;;;;;;;18.96;100.00;93464.03;5044426;28;20412;-76
2023/07/01 12:29:18;;;;;;;3.38;3.08;;;;;;;18.86;100.00;93440.72;5052361;28;20020;-76
2023/07/01 12:31:44;;;;;;;3.47;3.17;;;;;;;18.73;100.00;93369.97;5052390;28;20377;-76
2023/07/01 12:34:10;;;;;;;3.50;3.20;;;;;;;18.60;100.00;93313.31;5051720;28;20105;-76
2023/07/01 12:36:35;;;;;;;3.53;3.25;;;;;;;18.43;100.00;93291.28;5052586;28;20020;-77
2023/07/01 12:39:02;;;;;;;3.88;3.45;;;;;;;18.28;100.00;93243.97;5052419;28;20501;-76
2023/07/01 12:41:29;;;;;;;3.33;3.03;;;;;;;18.25;100.00;93229.31;5052976;28;20025;-76
2023/07/01 12:43:56;;;;;;;4.03;3.63;;;;;;;18.41;100.00;93185.00;5052980;28;20601;-78
2023/07/01 12:46:21;;;;;;;5.18;3.55;;;;;;;18.68;100.00;93138.06;5052969;28;20029;-77
2023/07/01 12:48:46;;;;;;;3.55;3.25;;;;;;;18.89;100.00;93112.38;5052436;28;20032;-77
2023/07/01 12:51:12;;;;;;;3.60;3.28;;;;;;;19.07;100.00;93081.81;5051375;28;20025;-77
2023/07/01 12:53:37;;;;;;;3.30;3.10;;;;;;;19.25;100.00;93095.78;5052565;28;20203;-77
2023/07/01 12:56:03;;;;;;;3.15;2.85;;;;;;;19.54;100.00;93130.88;5053399;28;20036;-77
2023/07/01 12:58:28;;;;;;;5.07;3.10;;;;;;;19.82;100.00;93192.09;5052892;28;20037;-77
2023/07/01 13:00:54;;;;;;;3.75;3.45;;;;;;;19.87;100.00;93289.00;5052185;28;20032;-77
2023/07/01 13:03:19;;;;;;;3.22;3.03;;;;;;;19.91;100.00;93308.03;5052624;28;20029;-78
2023/07/01 13:05:44;;;;;;;3.88;3.42;;;;;;;20.07;100.00;93308.91;5052371;28;20029;-78
2023/07/01 13:08:13;;;;;;;3.08;2.88;;;;;;;20.01;100.00;93382.88;5057545;28;20099;-77
2023/07/01 13:10:42;;;;;;;3.30;3.00;;;;;;;19.80;100.00;93408.56;5057405;28;20029;-77
2023/07/01 13:13:08;;;;;;;3.25;2.70;;;;;;;19.64;100.00;93414.84;5052834;28;20025;-78
2023/07/01 13:15:44;;;;;;;3.67;3.20;;;;;;;19.38;100.00;93409.28;5054077;28;20101;-78
2023/07/01 13:18:11;;;;;;;5.35;3.28;;;;;;;19.25;100.00;93402.50;5056894;28;20067;-77
2023/07/01 13:20:36;;;;;;;3.75;2.90;;;;;;;19.18;100.00;93368.84;5053076;28;20680;-77
2023/07/01 13:23:02;;;;;;;3.10;2.83;;;;;;;19.11;100.00;93359.44;5054614;28;20029;-76
2023/07/01 13:25:28;;;;;;;3.45;3.15;;;;;;;19.13;100.00;93371.47;5056322;28;20028;-78
2023/07/01 13:27:54;;;;;;;2.72;2.53;;;;;;;19.23;100.00;93359.28;5056408;28;20028;-76
2023/07/01 13:30:33;;;;;;;3.28;2.97;;;;;;;19.33;100.00;93381.50;5055882;28;20041;-77
2023/07/01 13:32:59;;;;;;;3.90;3.15;;;;;;;19.43;100.00;93390.66;5056255;28;20556;-76
2023/07/01 13:35:24;;;;;;;3.22;2.92;;;;;;;19.48;100.00;93417.41;5054626;28;20454;-79
2023/07/01 13:38:01;;;;;;;2.72;2.63;;;;;;;19.46;100.00;93440.84;5055611;28;20031;-77
2023/07/01 13:40:27;;;;;;;3.88;3.00;;;;;;;19.35;100.00;93431.94;5056790;28;20445;-77
2023/07/01 13:42:52;;;;;;;3.03;2.80;;;;;;;19.34;100.00;93435.66;5056517;28;20024;-77
2023/07/01 13:45:27;;;;;;;3.58;3.28;;;;;;;19.31;100.00;93404.97;5055442;28;20021;-77
2023/07/01 13:47:52;;;;;;;4.07;2.70;;;;;;;19.42;100.00;93379.19;5055873;28;20020;-77
2023/07/01 13:50:20;;;;;;;3.35;3.08;;;;;;;19.35;100.00;93407.94;5056263;28;20036;-77
2023/07/01 13:52:46;;;;;;;3.47;3.15;;;;;;;19.18;100.00;93410.69;5056231;28;20029;-76
2023/07/01 13:55:12;;;;;;;5.93;3.30;;;;;;;19.23;100.00;93394.75;5034119;28;20036;-77
2023/07/01 13:57:37;;;;;;;3.47;3.17;;;;;;;19.11;100.00;93378.88;5054094;28;20024;-77
2023/07/01 14:00:35;;;;;;;3.35;3.15;;;;;;;19.08;100.00;93312.75;5055371;28;20017;-77
2023/07/01 14:03:03;;;;;;;3.03;2.83;;;;;;;19.10;100.00;93259.94;5055741;28;20024;-77
2023/07/01 14:05:29;;;;;;;4.28;3.17;;;;;;;18.96;100.00;93226.78;5054699;28;20029;-77
2023/07/01 14:07:57;;;;;;;4.05;2.97;;;;;;;18.92;100.00;93202.47;5050245;28;20040;-76
2023/07/01 14:10:30;;;;;;;3.42;3.13;;;;;;;18.94;100.00;93178.25;5063066;28;20043;-77
2023/07/01 14:12:57;;;;;;;2.97;2.78;;;;;;;18.94;100.00;93163.03;5055119;28;20045;-77
2023/07/01 14:15:30;;;;;;;3.28;3.00;;;;;;;18.92;100.00;93138.50;5055067;28;20033;-77
2023/07/01 14:17:55;;;;;;;3.33;3.03;;;;;;;19.01;100.00;93085.53;5061921;28;20048;-77
2023/07/01 14:20:20;;;;;;;3.53;3.22;;;;;;;19.06;100.00;93106.09;5053766;28;20086;-77
2023/07/01 14:22:47;;;;;;;3.15;2.95;;;;;;;19.08;100.00;93098.66;5054853;28;20040;-77
2023/07/01 14:25:27;;;;;;;3.58;3.08;;;;;;;19.01;100.00;93106.88;5055189;28;20071;-77
2023/07/01 14:27:52;;;;;;;4.68;3.45;;;;;;;19.05;100.00;93083.94;5061403;28;20049;-77
2023/07/01 14:31:00;;;;;;;3.10;2.90;;;;;;;19.01;100.00;93083.69;5053344;28;20053;-77
2023/07/01 14:33:42;;;;;;;3.13;2.88;;;;;;;19.13;100.00;93074.66;5055521;28;20051;-77
2023/07/01 14:36:30;;;;;;;2.83;2.58;;;;;;;19.21;100.00;93113.38;5035919;28;20025;-77
2023/07/01 14:38:56;;;;;;;3.58;3.28;;;;;;;19.22;100.00;93168.31;5041454;28;20044;-78
2023/07/01 14:41:33;;;;;;;2.85;2.65;;;;;;;19.29;100.00;93174.22;5055327;28;20078;-77
2023/07/01 14:43:59;;;;;;;4.35;2.80;;;;;;;19.33;100.00;93175.28;5040534;28;20021;-78
2023/07/01 14:46:28;;;;;;;3.35;3.00;;;;;;;19.31;100.00;93220.91;5055288;28;20031;-77
2023/07/01 14:48:53;;;;;;;4.03;2.90;;;;;;;19.52;100.00;93237.06;5053265;28;20036;-77
2023/07/01 14:51:19;;;;;;;3.17;2.78;;;;;;;19.72;100.00;93265.72;5054896;28;20456;-77
2023/07/01 14:53:50;;;;;;;3.90;2.90;;;;;;;19.78;100.00;93305.78;5049805;28;20079;-76
2023/07/01 14:56:17;;;;;;;3.47;3.17;;;;;;;19.88;100.00;93314.63;5062855;28;20098;-76
2023/07/01 14:58:44;;;;;;;2.97;2.60;;;;;;;19.85;100.00;93354.41;5055783;28;20021;-77
2023/07/01 15:01:10;;;;;;;2.90;2.70;;;;;;;19.86;100.00;93393.41;5055039;28;20110;-78
2023/07/01 15:03:36;;;;;;;2.95;2.70;;;;;;;19.65;100.00;93433.28;5053810;28;20020;-77
2023/07/01 15:06:01;;;;;;;3.22;2.90;;;;;;;19.45;100.00;93442.72;5054745;28;20509;-77
2023/07/01 15:08:27;;;;;;;3.17;2.88;;;;;;;19.31;100.00;93460.16;5053222;28;20104;-77
2023/07/01 15:10:52;;;;;;;3.10;2.90;;;;;;;19.22;100.00;93473.13;5053199;28;20557;-77
2023/07/01 15:13:18;;;;;;;4.78;2.97;;;;;;;19.13;100.00;93472.81;5056016;28;20513;-77
2023/07/01 15:15:43;;;;;;;3.35;3.05;;;;;;;19.12;100.00;93479.19;5053946;28;20389;-77
2023/07/01 15:18:09;;;;;;;2.67;2.42;;;;;;;19.24;100.00;93459.56;5054078;28;20039;-76
2023/07/01 15:20:34;;;;;;;3.17;2.97;;;;;;;19.34;100.00;93467.66;5054892;28;20044;-76
2023/07/01 15:23:00;;;;;;;3.20;2.80;;;;;;;19.36;100.00;93464.75;5054262;28;20021;-76
2023/07/01 15:25:25;;;;;;;4.43;3.22;;;;;;;19.37;100.00;93475.19;5050771;28;20037;-77
2023/07/01 15:27:50;;;;;;;2.65;2.53;;;;;;;19.28;100.00;93506.84;5051637;28;20033;-77
2023/07/01 15:30:16;;;;;;;5.20;3.13;;;;;;;19.29;100.00;93504.97;5053813;28;20116;-76
2023/07/01 15:32:41;;;;;;;2.95;2.75;;;;;;;19.35;100.00;93508.50;5052656;28;20036;-77
2023/07/01 15:35:07;;;;;;;3.15;3.03;;;;;;;19.31;100.00;93489.50;5052937;28;20032;-76
2023/07/01 15:37:33;;;;;;;2.92;2.70;;;;;;;19.30;100.00;93487.91;5053293;28;20025;-77
2023/07/01 15:39:59;;;;;;;4.63;2.95;;;;;;;19.24;100.00;93497.72;5050420;28;20037;-77
2023/07/01 15:42:25;;;;;;;4.05;2.72;;;;;;;19.26;100.00;93500.94;5054289;28;20440;-77
2023/07/01 15:44:52;;;;;;;3.38;3.08;;;;;;;19.24;100.00;93484.38;5053642;28;20368;-76
2023/07/01 15:47:18;;;;;;;3.55;3.25;;;;;;;19.20;100.00;93467.25;5053407;28;20025;-76
2023/07/01 15:49:43;;;;;;;2.80;2.40;;;;;;;19.16;100.00;93450.16;5047318;28;20021;-76
2023/07/01 15:52:08;;;;;;;2.90;2.70;;;;;;;19.07;100.00;93454.31;5051032;28;20123;-76
2023/07/01 15:54:37;;;;;;;3.20;2.90;;;;;;;19.05;100.00;93441.22;5052863;28;20045;-76
2023/07/01 15:57:06;;;;;;;6.55;3.17;;;;;;;19.03;100.00;93425.50;5064070;28;20048;-76
2023/07/01 15:59:32;;;;;;;3.50;3.20;;;;;;;19.01;100.00;93418.78;5053576;28;20025;-75
2023/07/01 16:01:59;;;;;;;3.20;2.90;;;;;;;19.10;100.00;93403.94;5053579;28;20045;-76
2023/07/01 16:04:25;;;;;;;3.30;3.05;;;;;;;19.00;100.00;93393.97;5053860;28;20088;-76
2023/07/01 16:06:50;;;;;;;3.42;3.10;;;;;;;18.93;100.00;93408.56;5049373;28;20579;-76
2023/07/01 16:09:40;;;;;;;4.38;2.70;;;;;;;18.89;100.00;93419.69;5057404;28;20025;-76
2023/07/01 16:12:18;;;;;;;4.03;3.38;;;;;;;18.94;100.00;93423.50;5053167;28;20048;-76
2023/07/01 16:15:13;;;;;;;2.63;2.53;;;;;;;19.04;100.00;93408.44;5053386;28;20047;-76
2023/07/01 16:17:40;;;;;;;7.72;3.00;;;;;;;19.20;100.00;93415.78;5052259;28;20048;-76
2023/07/01 16:20:24;;;;;;;2.92;2.65;;;;;;;19.32;100.00;93438.59;5040213;28;20025;-76
2023/07/01 16:22:49;;;;;;;3.10;2.80;;;;;;;19.47;100.00;93463.81;5042058;28;20029;-76